Overview Statistics Trail Chart Weather Telemetry Raw packets
 

This is the latest recevied weather packets stored in our database for station/object SQ4IXR-4. If no packets are shown the sender has not sent any weather packets the latest 10 day(s).

<< 9 10 11 12 13 14 15 >>
Time Temp. Humidity Pressure Rain* Wind** Luminosity Snow
1788434922 28.33° C 32% 1019.6 hPa - - - -
1788434098 26.67° C 34% 1019.9 hPa - - - -
1788433271 28.33° C 35% 1019.8 hPa - - - -
1788432448 27.22° C 33% 1020.2 hPa - - - -
1788431624 28.33° C 33% 1020.2 hPa - - - -
1788430803 28.33° C 34% 1020.3 hPa - - - -
1788429975 28.33° C 32% 1020.3 hPa - - - -
1788429151 27.22° C 37% 1020.7 hPa - - - -
1788428327 27.22° C 36% 1020.6 hPa - - - -
1788427503 26.11° C 37% 1020.9 hPa - - - -
1788426684 28.33° C 34% 1020.8 hPa - - - -
1788425874 31.67° C 28% 1020.6 hPa - - - -
1788425082 45° C 14% 1019.8 hPa - - - -
1788424267 53.89° C 9% 1019.3 hPa - - - -
1788423445 53.33° C 10% 1019.3 hPa - - - -
1788422616 49.44° C 12% 1019.6 hPa - - - -
1788421793 51.67° C 11% 1019.5 hPa - - - -
1788420975 51.67° C 11% 1019.3 hPa - - - -
1788420149 52.78° C 11% 1019.4 hPa - - - -
1788419321 50° C 12% 1019.6 hPa - - - -
1788418497 50° C 13% 1019.6 hPa - - - -
1788417673 48.89° C 14% 1019.6 hPa - - - -
1788416015 43.33° C 18% 1020.2 hPa - - - -
1788415183 40° C 22% 1020.3 hPa - - - -
1788414338 33.89° C 31% 1020.8 hPa - - - -

* Rain since midnight (hover to see other rain measurements)
** Current wind speed in m/s (hover to see current wind gust speed)